Time;durP1;ratioP1;P1;durP2;ratioP2;P2;SDS_P1;SDS_P2;PMS_P1;PMS_P2;Temp;Humidity;BMP_temperature;BMP_pressure;BME280_temperature;BME280_humidity;BME280_pressure;Samples;Min_cycle;Max_cycle;Signal;HPM_P1;HPM_P2
2023/05/21 00:00:20;;;;;;;22.27;15.98;;;;;;;14.57;73.86;101702.41;5093239;28;20044;-60
2023/05/21 00:02:46;;;;;;;27.23;16.77;;;;;;;14.58;74.33;101696.16;5099923;28;20066;-60
2023/05/21 00:05:15;;;;;;;22.40;15.02;;;;;;;14.60;74.16;101699.66;5095978;28;20110;-60
2023/05/21 00:07:42;;;;;;;25.40;14.05;;;;;;;14.55;73.97;101701.59;5097049;28;20108;-60
2023/05/21 00:10:09;;;;;;;20.08;15.68;;;;;;;14.52;74.50;101699.97;5099137;28;20041;-60
2023/05/21 00:12:36;;;;;;;22.40;14.93;;;;;;;14.56;74.30;101695.34;5086643;28;20127;-60
2023/05/21 00:15:03;;;;;;;23.55;15.18;;;;;;;14.55;74.27;101693.63;5086633;28;20509;-60
2023/05/21 00:17:30;;;;;;;25.90;15.95;;;;;;;14.49;74.55;101692.97;5092674;28;20082;-60
2023/05/21 00:19:56;;;;;;;22.85;15.50;;;;;;;14.46;75.25;101685.16;5092588;28;20059;-61
2023/05/21 00:22:23;;;;;;;28.23;15.00;;;;;;;14.40;74.71;101688.13;5074811;28;20059;-61
2023/05/21 00:24:49;;;;;;;20.48;15.43;;;;;;;14.36;75.14;101694.50;5083704;28;20044;-61
2023/05/21 00:27:16;;;;;;;20.20;15.48;;;;;;;14.37;75.24;101682.94;5088435;28;20474;-59
2023/05/21 00:29:43;;;;;;;24.73;15.95;;;;;;;14.34;75.40;101691.06;5085514;28;20079;-60
2023/05/21 00:32:09;;;;;;;20.13;15.57;;;;;;;14.28;75.69;101691.34;5098932;28;20564;-60
2023/05/21 00:34:37;;;;;;;22.98;16.08;;;;;;;14.25;75.67;101696.78;5088165;28;20079;-60
2023/05/21 00:37:03;;;;;;;24.15;15.20;;;;;;;14.18;75.71;101690.03;5085213;28;20052;-60
2023/05/21 00:39:30;;;;;;;22.98;14.63;;;;;;;14.13;76.12;101687.59;5088982;28;20059;-60
2023/05/21 00:41:56;;;;;;;20.52;15.45;;;;;;;14.07;76.41;101687.84;5087159;28;20068;-60
2023/05/21 00:44:24;;;;;;;22.65;15.43;;;;;;;14.03;76.40;101686.28;5082065;28;20313;-60
2023/05/21 00:46:52;;;;;;;23.33;15.52;;;;;;;13.98;76.67;101699.78;5086178;28;20529;-60
2023/05/21 00:49:21;;;;;;;25.75;16.88;;;;;;;13.95;76.86;101691.94;5088683;28;20048;-60
2023/05/21 00:51:48;;;;;;;20.83;14.85;;;;;;;13.87;77.25;101680.78;5091556;28;20056;-60
2023/05/21 00:54:15;;;;;;;21.33;16.60;;;;;;;13.82;77.11;101686.31;5091004;28;20078;-59
2023/05/21 00:56:41;;;;;;;21.05;16.23;;;;;;;13.80;77.69;101682.88;5085466;28;20091;-60
2023/05/21 00:59:08;;;;;;;26.33;16.80;;;;;;;13.79;77.42;101677.63;5074820;28;20047;-60
2023/05/21 01:01:35;;;;;;;21.52;15.50;;;;;;;13.75;77.63;101677.75;5088130;28;20079;-60
2023/05/21 01:04:02;;;;;;;20.60;15.60;;;;;;;13.70;78.05;101679.75;5092108;28;20059;-59
2023/05/21 01:06:33;;;;;;;22.42;16.27;;;;;;;13.74;77.84;101670.69;5081725;28;20052;-60
2023/05/21 01:09:02;;;;;;;22.00;16.42;;;;;;;13.63;78.18;101662.34;5074137;28;20091;-60
2023/05/21 01:11:37;;;;;;;25.70;17.88;;;;;;;13.56;78.31;101663.53;5087847;28;20044;-60
2023/05/21 01:14:06;;;;;;;28.90;16.50;;;;;;;13.49;78.26;101659.44;5089970;28;20166;-60
2023/05/21 01:16:35;;;;;;;24.42;16.88;;;;;;;13.48;78.64;101661.22;5082729;28;20540;-60
2023/05/21 01:19:04;;;;;;;24.27;17.58;;;;;;;13.49;78.73;101654.13;5092013;28;20074;-60
2023/05/21 01:21:36;;;;;;;24.25;18.63;;;;;;;13.49;78.63;101654.13;5088310;28;20047;-60
2023/05/21 01:24:04;;;;;;;27.88;17.90;;;;;;;13.44;78.97;101651.66;5077519;28;20138;-60
2023/05/21 01:26:32;;;;;;;22.98;17.67;;;;;;;13.38;79.17;101658.09;5080112;28;20048;-60
2023/05/21 01:28:59;;;;;;;25.95;18.55;;;;;;;13.38;79.05;101658.09;5083680;28;20137;-60
2023/05/21 01:31:30;;;;;;;23.38;18.15;;;;;;;13.29;79.20;101655.81;5091007;28;20040;-60
2023/05/21 01:34:02;;;;;;;22.23;17.42;;;;;;;13.25;79.61;101651.56;5080892;28;20054;-60
2023/05/21 01:36:37;;;;;;;27.58;18.70;;;;;;;13.18;79.91;101644.78;5075307;28;20056;-60
2023/05/21 01:39:13;;;;;;;25.73;17.55;;;;;;;13.13;80.32;101652.09;5089782;28;20058;-60
2023/05/21 01:41:43;;;;;;;24.45;19.15;;;;;;;13.09;80.39;101645.16;5086148;28;20054;-60
2023/05/21 01:44:11;;;;;;;26.42;18.92;;;;;;;13.03;80.51;101641.00;5082247;28;20061;-60
2023/05/21 01:46:38;;;;;;;25.52;19.30;;;;;;;13.04;80.91;101648.91;5090639;28;20135;-60
2023/05/21 01:49:06;;;;;;;27.75;18.77;;;;;;;13.01;81.13;101641.06;5078062;28;20084;-60
2023/05/21 01:51:34;;;;;;;26.13;17.55;;;;;;;12.97;80.99;101642.09;5085217;28;20135;-60
2023/05/21 01:54:01;;;;;;;28.75;18.52;;;;;;;12.94;81.28;101647.53;5086848;28;20508;-60
2023/05/21 01:56:28;;;;;;;26.67;17.92;;;;;;;12.93;81.29;101651.13;5088914;28;20054;-61
2023/05/21 01:58:59;;;;;;;25.90;17.13;;;;;;;12.90;81.48;101639.75;5085075;28;20052;-60
2023/05/21 02:01:28;;;;;;;37.00;18.98;;;;;;;12.91;81.99;101642.34;5089547;28;20058;-60
2023/05/21 02:03:56;;;;;;;28.23;18.10;;;;;;;12.89;82.00;101644.19;5075841;28;20056;-60
2023/05/21 02:06:23;;;;;;;32.65;20.85;;;;;;;12.86;82.03;101639.03;5088533;28;20048;-60
2023/05/21 02:08:50;;;;;;;27.60;19.80;;;;;;;12.85;82.95;101637.31;5082264;28;20124;-60
2023/05/21 02:11:17;;;;;;;36.40;20.67;;;;;;;12.80;82.48;101639.25;5089646;28;20432;-60
2023/05/21 02:13:44;;;;;;;30.70;20.58;;;;;;;12.77;82.75;101636.75;5078443;28;20491;-60
2023/05/21 02:16:13;;;;;;;28.08;20.40;;;;;;;12.75;83.16;101625.31;5081247;28;20128;-60
2023/05/21 02:18:43;;;;;;;31.52;21.20;;;;;;;12.66;83.04;101627.44;5079188;28;20525;-60
2023/05/21 02:21:10;;;;;;;28.02;19.65;;;;;;;12.63;82.80;101626.69;5081552;28;20067;-60
2023/05/21 02:23:37;;;;;;;29.63;20.15;;;;;;;12.57;83.05;101627.81;5084805;28;20590;-60
2023/05/21 02:26:03;;;;;;;29.45;20.65;;;;;;;12.53;83.32;101615.59;5090532;28;20123;-60
2023/05/21 02:28:31;;;;;;;32.17;21.05;;;;;;;12.51;83.41;101622.75;5088179;28;20482;-60
2023/05/21 02:30:58;;;;;;;28.58;20.52;;;;;;;12.49;83.58;101616.66;5082260;28;20048;-60
2023/05/21 02:33:24;;;;;;;33.05;19.75;;;;;;;12.52;83.38;101616.53;5078804;28;20044;-60
2023/05/21 02:35:51;;;;;;;33.50;20.98;;;;;;;12.47;82.99;101622.03;5087894;28;20138;-60
2023/05/21 02:38:21;;;;;;;30.95;20.95;;;;;;;12.46;83.28;101622.09;5074155;28;20044;-60
2023/05/21 02:40:52;;;;;;;36.47;21.70;;;;;;;12.38;84.04;101616.22;5088189;28;20059;-60
2023/05/21 02:43:18;;;;;;;28.38;21.77;;;;;;;12.28;83.70;101619.22;5081341;28;20182;-60
2023/05/21 02:45:45;;;;;;;33.55;22.90;;;;;;;12.22;83.85;101615.94;5083349;28;20051;-60
2023/05/21 02:48:12;;;;;;;29.63;21.52;;;;;;;12.21;83.68;101620.38;5093770;28;20449;-60
2023/05/21 02:50:38;;;;;;;32.22;21.30;;;;;;;12.17;84.36;101612.63;5094158;28;20083;-60
2023/05/21 02:53:06;;;;;;;29.92;22.20;;;;;;;12.17;84.62;101612.63;5090304;28;20127;-60
2023/05/21 02:55:32;;;;;;;29.13;22.33;;;;;;;12.20;84.47;101608.06;5093314;28;20048;-60
2023/05/21 02:57:59;;;;;;;32.80;21.65;;;;;;;12.18;84.47;101609.03;5096742;28;20052;-60
2023/05/21 03:00:25;;;;;;;30.98;22.00;;;;;;;12.15;84.18;101603.88;5094301;28;20040;-60
2023/05/21 03:02:52;;;;;;;29.88;22.92;;;;;;;12.13;84.98;101601.28;5093065;28;20184;-61
2023/05/21 03:05:19;;;;;;;29.08;22.20;;;;;;;12.16;84.50;101606.44;5100275;28;20100;-60
2023/05/21 03:07:46;;;;;;;28.50;21.15;;;;;;;12.16;84.70;101606.44;5093796;28;20395;-60
2023/05/21 03:10:12;;;;;;;44.95;23.02;;;;;;;12.12;84.90;101604.84;5090111;28;20123;-59
2023/05/21 03:12:39;;;;;;;28.75;22.45;;;;;;;12.11;84.83;101603.09;5088901;28;20044;-60
2023/05/21 03:15:06;;;;;;;36.30;22.52;;;;;;;12.09;85.26;101597.00;5093648;28;20048;-59
2023/05/21 03:17:32;;;;;;;30.23;22.20;;;;;;;12.07;85.16;101604.16;5092834;28;20047;-59
2023/05/21 03:19:59;;;;;;;28.65;22.65;;;;;;;12.06;85.10;101605.06;5081100;28;20133;-59
2023/05/21 03:22:25;;;;;;;32.88;23.00;;;;;;;12.09;85.37;101599.66;5090365;28;20046;-59
2023/05/21 03:24:52;;;;;;;36.33;23.85;;;;;;;12.06;85.40;101605.94;5088393;28;20518;-59
2023/05/21 03:27:19;;;;;;;32.90;22.70;;;;;;;12.08;85.34;101606.75;5083058;28;20099;-59
2023/05/21 03:29:45;;;;;;;33.75;22.73;;;;;;;12.12;85.72;101610.13;5078356;28;20048;-59
2023/05/21 03:32:12;;;;;;;34.50;22.05;;;;;;;12.15;85.54;101610.03;5087983;28;20044;-59
2023/05/21 03:34:39;;;;;;;36.45;23.08;;;;;;;12.25;85.79;101611.38;5093075;28;20040;-59
2023/05/21 03:37:06;;;;;;;34.90;26.58;;;;;;;12.28;85.60;101608.63;5091112;28;20123;-59
2023/05/21 03:39:32;;;;;;;31.55;23.05;;;;;;;12.30;85.68;101604.09;5082089;28;20146;-60
2023/05/21 03:41:59;;;;;;;37.83;25.55;;;;;;;12.33;85.53;101605.78;5093921;28;20170;-59
2023/05/21 03:44:25;;;;;;;36.78;23.08;;;;;;;12.34;86.09;101609.28;5092706;28;20043;-60
2023/05/21 03:46:52;;;;;;;40.13;23.30;;;;;;;12.41;85.45;101621.41;5093554;28;20076;-60
2023/05/21 03:49:19;;;;;;;37.67;25.45;;;;;;;12.42;85.91;101612.50;5092383;28;20150;-60
2023/05/21 03:51:46;;;;;;;35.65;24.70;;;;;;;12.46;85.96;101619.44;5093765;28;20505;-60
2023/05/21 03:54:12;;;;;;;32.80;25.35;;;;;;;12.50;85.93;101610.41;5093131;28;20054;-60
2023/05/21 03:56:39;;;;;;;33.15;23.05;;;;;;;12.55;85.54;101613.72;5092509;28;20079;-59
2023/05/21 03:59:05;;;;;;;35.13;24.15;;;;;;;12.58;85.52;101613.63;5089172;28;20060;-59
2023/05/21 04:01:32;;;;;;;35.22;23.13;;;;;;;12.62;85.38;101609.94;5092962;28;20368;-59
2023/05/21 04:03:59;;;;;;;33.50;22.77;;;;;;;12.67;85.92;101613.25;5084460;28;20420;-59
2023/05/21 04:06:25;;;;;;;33.70;24.85;;;;;;;12.74;85.44;101613.00;5097371;28;20064;-61
2023/05/21 04:08:52;;;;;;;37.92;24.15;;;;;;;12.81;85.53;101619.78;5093461;28;20379;-59
2023/05/21 04:11:19;;;;;;;32.47;23.33;;;;;;;12.89;85.48;101622.13;5092456;28;20044;-60
2023/05/21 04:13:46;;;;;;;35.65;26.45;;;;;;;13.00;85.44;101615.44;5093522;28;20048;-60
2023/05/21 04:16:17;;;;;;;34.30;22.90;;;;;;;13.10;85.22;101609.75;5086771;28;20453;-60
2023/05/21 04:18:45;;;;;;;37.47;24.70;;;;;;;13.18;85.28;101619.09;5093829;28;20075;-60
2023/05/21 04:21:12;;;;;;;39.80;25.23;;;;;;;13.29;84.72;101621.31;5086679;28;20040;-60
2023/05/21 04:23:38;;;;;;;35.63;26.08;;;;;;;13.39;84.68;101616.50;5073511;28;20571;-59
2023/05/21 04:26:06;;;;;;;35.83;24.60;;;;;;;13.46;84.21;101617.94;5078413;28;20079;-61
2023/05/21 04:28:34;;;;;;;35.72;24.27;;;;;;;13.58;84.19;101621.84;5072459;28;20475;-61
2023/05/21 04:31:00;;;;;;;37.33;26.23;;;;;;;13.68;84.04;101628.47;5070850;28;20047;-59
2023/05/21 04:33:27;;;;;;;39.60;26.55;;;;;;;13.78;83.56;101623.63;5076416;28;20083;-61
2023/05/21 04:35:54;;;;;;;36.58;24.83;;;;;;;13.87;83.05;101627.66;5074631;28;20044;-59
2023/05/21 04:38:21;;;;;;;37.53;24.73;;;;;;;13.94;82.85;101624.66;5079069;28;20044;-59
2023/05/21 04:40:51;;;;;;;34.78;24.05;;;;;;;14.04;82.77;101630.41;5077272;28;20051;-59
2023/05/21 04:43:24;;;;;;;39.70;26.67;;;;;;;14.13;82.06;101629.09;5080905;28;20114;-59
2023/05/21 04:45:53;;;;;;;36.15;23.52;;;;;;;14.25;82.22;101628.50;5078178;28;20048;-59
2023/05/21 04:48:25;;;;;;;39.75;27.13;;;;;;;14.36;81.83;101630.66;5078662;28;20048;-59
2023/05/21 04:50:55;;;;;;;35.17;23.92;;;;;;;14.45;80.98;101624.91;5075233;28;20052;-59
2023/05/21 04:53:22;;;;;;;37.70;23.92;;;;;;;14.53;80.79;101627.19;5080334;28;20049;-60
2023/05/21 04:55:49;;;;;;;31.02;22.92;;;;;;;14.61;80.75;101624.19;5075217;28;20052;-59
2023/05/21 04:58:18;;;;;;;36.53;23.38;;;;;;;14.73;80.49;101623.63;5077850;28;20052;-59
2023/05/21 05:00:45;;;;;;;38.53;26.02;;;;;;;14.79;79.69;101623.28;5073914;28;20055;-59
2023/05/21 05:03:13;;;;;;;32.90;22.75;;;;;;;14.92;79.69;101630.66;5075650;28;20051;-59
2023/05/21 05:05:40;;;;;;;34.83;24.02;;;;;;;15.03;79.21;101625.66;5071225;28;20678;-60
2023/05/21 05:08:07;;;;;;;36.30;24.17;;;;;;;15.13;78.86;101626.06;5081645;28;20135;-60
2023/05/21 05:10:34;;;;;;;32.40;23.13;;;;;;;15.27;78.31;101628.00;5074446;28;20132;-59
2023/05/21 05:13:00;;;;;;;33.08;24.25;;;;;;;15.31;77.84;101624.25;5077888;28;20075;-60
2023/05/21 05:15:27;;;;;;;39.53;25.42;;;;;;;15.41;77.76;101630.81;5076754;28;20052;-61
2023/05/21 05:17:55;;;;;;;29.95;22.05;;;;;;;15.52;77.40;101627.63;5077535;28;20560;-60
2023/05/21 05:20:22;;;;;;;30.13;22.92;;;;;;;15.54;77.24;101621.25;5080121;28;20060;-60
2023/05/21 05:22:48;;;;;;;32.15;23.67;;;;;;;15.64;77.09;101620.78;5075669;28;20349;-60
2023/05/21 05:25:15;;;;;;;31.02;22.38;;;;;;;15.73;76.63;101625.63;5075248;28;20044;-60
2023/05/21 05:27:41;;;;;;;30.55;23.98;;;;;;;15.78;76.39;101620.94;5078054;28;20040;-60
2023/05/21 05:30:08;;;;;;;32.47;23.35;;;;;;;15.79;76.51;101625.31;5074826;28;20051;-60
2023/05/21 05:32:35;;;;;;;34.53;23.17;;;;;;;15.89;75.92;101615.88;5079040;28;20046;-60
2023/05/21 05:35:02;;;;;;;35.35;23.05;;;;;;;15.90;75.78;101616.72;5072185;28;20056;-60
2023/05/21 05:37:28;;;;;;;36.00;23.40;;;;;;;15.95;75.87;101620.00;5075459;28;20041;-60
2023/05/21 05:39:55;;;;;;;33.70;22.98;;;;;;;16.02;75.52;101620.53;5074585;28;20051;-59
2023/05/21 05:42:21;;;;;;;31.77;23.52;;;;;;;16.06;75.31;101622.09;5078592;28;20483;-59
2023/05/21 05:44:48;;;;;;;31.50;23.45;;;;;;;16.09;75.13;101627.25;5073953;28;21560;-59
2023/05/21 05:47:15;;;;;;;31.88;24.70;;;;;;;16.00;75.60;101623.28;5079168;28;20051;-59
2023/05/21 05:49:42;;;;;;;35.47;25.25;;;;;;;16.05;75.44;101625.69;5077684;28;20059;-59
2023/05/21 05:52:09;;;;;;;34.80;24.75;;;;;;;15.96;75.71;101619.91;5073467;28;20044;-60
2023/05/21 05:54:35;;;;;;;34.53;25.23;;;;;;;15.92;75.85;101615.72;5077931;28;20076;-60
2023/05/21 05:57:02;;;;;;;32.05;24.50;;;;;;;15.96;75.99;101608.41;5078666;28;20074;-59
2023/05/21 05:59:28;;;;;;;35.13;23.35;;;;;;;16.00;76.07;101611.75;5084049;28;20051;-59
2023/05/21 06:01:55;;;;;;;35.72;24.20;;;;;;;16.06;75.75;101616.75;5078848;28;20071;-59
2023/05/21 06:04:21;;;;;;;31.60;24.75;;;;;;;16.04;75.75;101618.66;5083109;28;20143;-59
2023/05/21 06:06:48;;;;;;;33.20;24.17;;;;;;;16.02;75.99;101615.19;5082592;28;20453;-59
2023/05/21 06:09:14;;;;;;;32.42;23.98;;;;;;;16.04;76.18;101616.84;5079847;28;20044;-59
2023/05/21 06:11:41;;;;;;;32.95;23.20;;;;;;;16.13;75.67;101619.00;5079729;28;20399;-59
2023/05/21 06:14:08;;;;;;;35.00;22.98;;;;;;;16.18;75.69;101621.41;5076435;28;20048;-59
2023/05/21 06:16:35;;;;;;;36.80;25.20;;;;;;;16.27;75.16;101612.06;5077932;28;20560;-59
2023/05/21 06:19:02;;;;;;;29.73;22.05;;;;;;;16.34;75.36;101613.41;5077361;28;20047;-59
2023/05/21 06:21:29;;;;;;;27.55;22.85;;;;;;;16.41;75.22;101608.59;5076172;28;20475;-59
2023/05/21 06:23:56;;;;;;;34.85;24.20;;;;;;;16.38;75.02;101606.97;5081442;28;20644;-59
2023/05/21 06:26:22;;;;;;;28.13;22.33;;;;;;;16.47;74.56;101610.91;5080820;28;20054;-59
2023/05/21 06:28:49;;;;;;;32.10;22.52;;;;;;;16.61;73.98;101608.31;5083774;28;20079;-59
2023/05/21 06:31:15;;;;;;;32.25;23.02;;;;;;;16.76;73.19;101613.72;5081872;28;20128;-59
2023/05/21 06:33:42;;;;;;;41.03;22.75;;;;;;;16.83;73.31;101612.41;5083120;28;20059;-59
2023/05/21 06:36:09;;;;;;;32.00;23.73;;;;;;;16.90;72.80;101602.25;5082184;28;20048;-60
2023/05/21 06:38:36;;;;;;;30.55;23.40;;;;;;;16.91;72.58;101614.69;5080064;28;20564;-59
2023/05/21 06:41:03;;;;;;;33.78;22.33;;;;;;;16.99;72.34;101607.91;5075690;28;20049;-59
2023/05/21 06:43:29;;;;;;;31.58;22.98;;;;;;;17.16;71.44;101608.72;5078307;28;20538;-60
2023/05/21 06:45:56;;;;;;;33.13;23.65;;;;;;;17.35;70.84;101604.00;5083077;28;20131;-60
2023/05/21 06:48:22;;;;;;;31.13;22.92;;;;;;;17.51;70.32;101608.41;5078268;28;20040;-60
2023/05/21 06:50:49;;;;;;;33.45;23.40;;;;;;;17.73;69.50;101608.78;5081360;28;20109;-59
2023/05/21 06:53:15;;;;;;;28.90;22.73;;;;;;;17.87;69.00;101605.28;5077245;28;20048;-60
2023/05/21 06:55:45;;;;;;;28.58;21.27;;;;;;;17.91;68.58;101603.28;5079999;28;20076;-61
2023/05/21 06:58:11;;;;;;;30.13;21.35;;;;;;;18.06;68.21;101596.09;5080519;28;20072;-59
2023/05/21 07:00:38;;;;;;;26.45;20.25;;;;;;;18.22;67.37;101593.31;5078675;28;20048;-60
2023/05/21 07:03:05;;;;;;;31.15;20.73;;;;;;;18.37;66.72;101586.94;5080593;28;20461;-59
2023/05/21 07:05:31;;;;;;;29.30;19.92;;;;;;;18.42;66.11;101589.31;5080472;28;20127;-59
2023/05/21 07:07:58;;;;;;;25.63;19.02;;;;;;;18.60;65.42;101598.84;5079787;28;20049;-59
2023/05/21 07:10:24;;;;;;;25.85;19.48;;;;;;;18.76;65.22;101587.94;5078673;28;20148;-60
2023/05/21 07:12:51;;;;;;;34.58;19.83;;;;;;;18.84;64.51;101591.00;5080926;28;20052;-59
2023/05/21 07:15:18;;;;;;;31.75;19.83;;;;;;;18.92;64.05;101598.53;5078801;28;20138;-60
2023/05/21 07:17:44;;;;;;;27.08;18.50;;;;;;;19.13;64.62;101590.00;5081779;28;20581;-60
2023/05/21 07:20:12;;;;;;;29.55;20.33;;;;;;;19.31;63.75;101587.88;5082616;28;20045;-59
2023/05/21 07:22:39;;;;;;;24.55;18.63;;;;;;;19.24;63.11;101590.97;5075887;28;20084;-60
2023/05/21 07:25:06;;;;;;;24.27;19.52;;;;;;;19.44;62.46;101599.44;5076952;28;20041;-59
2023/05/21 07:27:32;;;;;;;24.13;18.83;;;;;;;19.37;62.53;101593.66;5078780;28;20044;-60
2023/05/21 07:29:59;;;;;;;22.13;18.23;;;;;;;19.62;62.60;101590.09;5077623;28;20107;-60
2023/05/21 07:32:27;;;;;;;25.17;19.50;;;;;;;19.83;61.46;101594.94;5078890;28;20113;-60
2023/05/21 07:34:55;;;;;;;20.55;18.25;;;;;;;19.92;60.63;101588.91;5078700;28;20072;-60
2023/05/21 07:37:22;;;;;;;26.00;18.33;;;;;;;19.95;60.78;101585.16;5083593;28;20047;-60
2023/05/21 07:39:48;;;;;;;23.90;18.15;;;;;;;20.06;60.81;101584.38;5084331;28;20364;-59
2023/05/21 07:42:15;;;;;;;25.98;18.38;;;;;;;20.23;60.28;101592.06;5074966;28;20183;-59
2023/05/21 07:44:41;;;;;;;30.30;19.85;;;;;;;20.21;60.30;101583.25;5071488;28;20040;-60
2023/05/21 07:47:08;;;;;;;27.67;19.40;;;;;;;20.29;60.22;101580.03;5080025;28;20055;-59
2023/05/21 07:49:35;;;;;;;23.52;17.38;;;;;;;20.47;60.13;101586.69;5072020;28;20060;-59
2023/05/21 07:52:01;;;;;;;22.70;17.92;;;;;;;20.50;59.37;101585.63;5076234;28;20462;-59
2023/05/21 07:54:28;;;;;;;26.98;17.35;;;;;;;20.53;59.26;101588.94;5073283;28;20055;-59
2023/05/21 07:56:55;;;;;;;24.08;18.40;;;;;;;20.60;59.61;101578.59;5078121;28;20085;-59
2023/05/21 07:59:22;;;;;;;24.30;17.70;;;;;;;20.54;58.76;101579.88;5078979;28;20164;-59
2023/05/21 08:01:48;;;;;;;27.15;17.98;;;;;;;20.49;59.28;101567.78;5077844;28;20045;-60
2023/05/21 08:04:15;;;;;;;26.42;17.17;;;;;;;20.64;58.69;101568.50;5078509;28;20044;-60
2023/05/21 08:06:43;;;;;;;25.48;16.98;;;;;;;20.68;58.59;101570.00;5076401;28;20079;-60
2023/05/21 08:09:11;;;;;;;24.63;17.70;;;;;;;20.87;58.21;101580.19;5078236;28;20036;-59
2023/05/21 08:11:37;;;;;;;20.65;17.08;;;;;;;20.87;57.71;101564.06;5081582;28;20108;-60
2023/05/21 08:14:04;;;;;;;27.45;17.40;;;;;;;20.86;58.15;101565.06;5080765;28;20122;-59
2023/05/21 08:16:31;;;;;;;25.90;17.42;;;;;;;21.13;57.28;101569.25;5076104;28;20071;-59
2023/05/21 08:18:58;;;;;;;22.27;16.23;;;;;;;21.16;57.04;101563.66;5077128;28;20056;-60
2023/05/21 08:21:25;;;;;;;21.80;16.13;;;;;;;21.26;56.87;101570.03;5080404;28;20048;-60
2023/05/21 08:23:52;;;;;;;23.13;16.48;;;;;;;21.41;55.83;101574.22;5076442;28;20051;-59
2023/05/21 08:26:18;;;;;;;20.67;15.45;;;;;;;21.54;55.88;101573.25;5076314;28;20469;-60
2023/05/21 08:28:45;;;;;;;19.33;15.27;;;;;;;21.78;55.43;101574.00;5080603;28;20140;-60
2023/05/21 08:31:12;;;;;;;18.25;14.48;;;;;;;21.85;54.36;101565.44;5084664;28;20318;-60
2023/05/21 08:33:48;;;;;;;21.30;15.88;;;;;;;21.76;54.83;101562.50;5082371;28;20415;-60
2023/05/21 08:36:15;;;;;;;22.13;15.85;;;;;;;21.97;54.18;101577.88;5080930;28;20075;-60
2023/05/21 08:38:41;;;;;;;21.92;14.68;;;;;;;22.14;54.21;101577.38;5080719;28;20063;-60
2023/05/21 08:41:10;;;;;;;18.90;14.63;;;;;;;21.89;53.64;101578.50;5084211;28;20055;-60
2023/05/21 08:43:40;;;;;;;20.58;15.15;;;;;;;22.09;53.50;101576.88;5079430;28;20445;-60
2023/05/21 08:46:08;;;;;;;23.07;14.97;;;;;;;22.17;54.06;101576.28;5081237;28;20044;-60
2023/05/21 08:48:36;;;;;;;18.35;14.35;;;;;;;22.26;53.79;101571.97;5080097;28;20346;-60
2023/05/21 08:51:03;;;;;;;20.50;13.57;;;;;;;22.49;52.83;101576.34;5079619;28;20045;-60
2023/05/21 08:53:33;;;;;;;18.83;14.48;;;;;;;22.52;52.35;101570.66;5081988;28;20048;-60
2023/05/21 08:56:00;;;;;;;19.42;13.05;;;;;;;22.80;52.25;101578.28;5082894;28;20060;-60
2023/05/21 08:58:28;;;;;;;18.77;12.88;;;;;;;22.64;51.90;101566.13;5081017;28;20042;-60
2023/05/21 09:00:56;;;;;;;16.20;13.13;;;;;;;22.87;51.97;101569.56;5082705;28;20131;-60
2023/05/21 09:03:23;;;;;;;18.90;12.95;;;;;;;22.88;52.00;101571.25;5082669;28;20852;-60
2023/05/21 09:05:50;;;;;;;19.48;14.68;;;;;;;22.87;51.71;101564.16;5082137;28;20052;-61
2023/05/21 09:08:26;;;;;;;19.90;14.13;;;;;;;22.87;52.02;101574.94;5080497;28;20124;-61
2023/05/21 09:10:53;;;;;;;17.45;14.50;;;;;;;23.00;51.57;101555.00;5082856;28;20523;-60
2023/05/21 09:13:20;;;;;;;17.63;13.45;;;;;;;23.03;51.37;101562.84;5087859;28;20047;-60
2023/05/21 09:15:47;;;;;;;22.23;14.00;;;;;;;23.07;51.31;101553.56;5089372;28;20075;-60
2023/05/21 09:18:14;;;;;;;19.23;13.70;;;;;;;23.20;50.39;101554.19;5082076;28;20052;-60
2023/05/21 09:20:41;;;;;;;16.50;13.57;;;;;;;23.28;50.43;101559.78;5096957;28;20134;-60
2023/05/21 09:23:15;;;;;;;16.70;13.18;;;;;;;23.31;49.64;101565.88;5083836;28;20083;-60
2023/05/21 09:25:45;;;;;;;17.23;13.15;;;;;;;23.55;49.21;101558.34;5079928;28;20048;-60
2023/05/21 09:28:13;;;;;;;17.20;13.13;;;;;;;23.67;49.13;101561.81;5081235;28;20204;-60
2023/05/21 09:30:44;;;;;;;20.35;13.27;;;;;;;23.60;49.04;101553.38;5084182;28;20414;-60
2023/05/21 09:33:11;;;;;;;17.95;11.85;;;;;;;23.77;49.33;101551.06;5080952;28;20093;-60
2023/05/21 09:35:45;;;;;;;32.33;16.60;;;;;;;23.87;48.80;101540.31;5083967;28;20155;-60
2023/05/21 09:38:12;;;;;;;16.65;11.48;;;;;;;24.03;47.40;101547.88;5081148;28;20072;-60
2023/05/21 09:40:44;;;;;;;24.33;12.40;;;;;;;24.50;46.80;101553.47;5083805;28;20507;-59
2023/05/21 09:43:17;;;;;;;19.70;12.30;;;;;;;24.84;46.15;101544.97;5080983;28;20516;-60
2023/05/21 09:45:54;;;;;;;15.27;12.70;;;;;;;24.80;45.54;101548.94;5083145;28;20131;-60
2023/05/21 09:48:35;;;;;;;19.15;13.85;;;;;;;24.89;45.30;101548.91;5080058;28;20099;-60
2023/05/21 09:51:10;;;;;;;13.10;10.68;;;;;;;25.00;45.16;101545.22;5079539;28;20098;-60
2023/05/21 09:53:51;;;;;;;10.88;9.45;;;;;;;25.37;43.30;101546.28;5080939;28;20075;-61
2023/05/21 09:56:21;;;;;;;11.95;8.80;;;;;;;25.81;41.87;101544.66;5080889;28;20071;-60
2023/05/21 09:58:51;;;;;;;14.55;8.82;;;;;;;25.87;41.01;101536.94;5089998;28;20083;-59
2023/05/21 10:01:18;;;;;;;12.60;7.83;;;;;;;26.25;40.48;101537.72;5090791;28;20059;-60
2023/05/21 10:03:52;;;;;;;21.73;8.70;;;;;;;26.26;39.81;101525.88;5096108;28;20043;-60
2023/05/21 10:06:20;;;;;;;16.13;9.00;;;;;;;25.59;40.76;101534.22;5098220;28;20078;-61
2023/05/21 10:08:52;;;;;;;13.07;8.77;;;;;;;25.68;40.38;101527.94;5087875;28;21710;-61
2023/05/21 10:11:22;;;;;;;17.80;8.88;;;;;;;26.35;39.63;101530.34;5075836;28;20425;-60
2023/05/21 10:13:56;;;;;;;12.70;7.78;;;;;;;26.64;38.99;101523.88;5079041;28;20548;-60
2023/05/21 10:16:24;;;;;;;16.33;8.00;;;;;;;26.73;38.03;101523.78;5083913;28;20093;-60
2023/05/21 10:18:53;;;;;;;18.00;9.63;;;;;;;26.94;38.20;101514.47;5090663;28;20135;-60
2023/05/21 10:21:23;;;;;;;12.50;7.65;;;;;;;26.72;37.52;101513.09;5089661;28;20055;-60
2023/05/21 10:23:50;;;;;;;16.02;7.95;;;;;;;26.47;38.56;101512.03;5079477;28;20063;-60
2023/05/21 10:26:20;;;;;;;36.10;12.35;;;;;;;26.44;39.05;101510.47;5087301;28;20080;-60
2023/05/21 10:28:49;;;;;;;12.90;7.63;;;;;;;26.27;39.23;101505.88;5088960;28;20048;-60
2023/05/21 10:31:17;;;;;;;11.23;7.45;;;;;;;26.16;38.67;101505.13;5084703;28;20063;-60
2023/05/21 10:33:44;;;;;;;11.30;7.22;;;;;;;26.03;38.82;101510.06;5088926;28;20408;-59
2023/05/21 10:36:12;;;;;;;11.80;7.28;;;;;;;25.85;38.98;101501.06;5081181;28;20087;-59
2023/05/21 10:38:41;;;;;;;11.23;7.18;;;;;;;25.96;38.73;101503.53;5077408;28;20144;-59
2023/05/21 10:41:09;;;;;;;7.82;6.80;;;;;;;26.12;37.99;101497.44;5077345;28;20045;-60
2023/05/21 10:44:13;;;;;;;10.75;7.38;;;;;;;26.34;37.37;101496.16;5081246;28;20039;-60
2023/05/21 10:47:24;;;;;;;8.13;5.97;;;;;;;26.99;36.86;101495.84;5081910;28;20083;-60
2023/05/21 10:50:33;;;;;;;14.20;6.60;;;;;;;27.37;35.41;101492.84;5079946;28;20468;-60
2023/05/21 10:53:13;;;;;;;8.18;6.32;;;;;;;28.58;33.81;101487.03;5083413;28;20128;-60
2023/05/21 10:55:54;;;;;;;7.97;6.63;;;;;;;28.28;33.85;101486.69;5075078;28;20078;-60
2023/05/21 10:59:11;;;;;;;10.02;6.47;;;;;;;28.80;33.02;101490.06;5079725;28;20045;-60
2023/05/21 11:01:40;;;;;;;10.75;6.22;;;;;;;29.53;31.86;101485.47;5054434;28;20052;-60
2023/05/21 11:04:07;;;;;;;6.63;5.50;;;;;;;29.28;32.20;101477.41;5077549;28;20036;-60
2023/05/21 11:06:35;;;;;;;10.38;5.47;;;;;;;30.01;30.68;101483.50;5075879;28;20446;-60
2023/05/21 11:09:13;;;;;;;12.25;5.47;;;;;;;30.37;30.56;101463.84;5080220;28;20052;-60
2023/05/21 11:11:49;;;;;;;9.60;6.50;;;;;;;30.09;30.43;101479.88;5081435;28;20059;-59
2023/05/21 11:14:27;;;;;;;7.93;5.72;;;;;;;30.28;30.48;101467.66;5074702;28;20041;-60